Time;durP1;ratioP1;P1;durP2;ratioP2;P2;SDS_P1;SDS_P2;PMS_P1;PMS_P2;Temp;Humidity;BMP_temperature;BMP_pressure;BME280_temperature;BME280_humidity;BME280_pressure;Samples;Min_cycle;Max_cycle;Signal;HPM_P1;HPM_P2
2023/07/08 00:01:16;;;;;;;5.10;1.30;;;;;;;15.94;72.17;99142.87;105078;1264;72717;-22
2023/07/08 00:03:43;;;;;;;6.30;1.30;;;;;;;15.96;71.52;99142.45;104545;1267;61340;-22
2023/07/08 00:06:24;;;;;;;2.30;1.30;;;;;;;15.79;71.98;99143.14;104717;1264;61150;-22
2023/07/08 00:08:52;;;;;;;2.90;1.30;;;;;;;15.54;72.84;99140.20;104817;1264;73099;-22
2023/07/08 00:11:20;;;;;;;7.60;3.20;;;;;;;15.29;73.73;99140.28;104912;1264;73279;-22
2023/07/08 00:13:48;;;;;;;4.40;1.90;;;;;;;15.06;74.42;99140.70;104762;1267;72731;-22
2023/07/08 00:16:18;;;;;;;9.10;1.10;;;;;;;14.93;75.22;99146.95;104878;1267;61708;-22
2023/07/08 00:18:48;;;;;;;2.10;1.10;;;;;;;15.38;73.97;99143.21;104723;1264;61125;-22
2023/07/08 00:21:16;;;;;;;2.30;1.20;;;;;;;15.77;72.00;99142.60;104800;1271;73135;-22
2023/07/08 00:23:48;;;;;;;2.20;1.20;;;;;;;15.77;71.86;99140.33;104794;1274;73286;-22
2023/07/08 00:26:26;;;;;;;1.60;1.20;;;;;;;15.55;72.52;99136.21;104788;1267;71575;-22
2023/07/08 00:28:54;;;;;;;2.60;1.50;;;;;;;15.30;73.02;99138.05;104717;1267;61087;-22
2023/07/08 00:31:23;;;;;;;3.70;1.50;;;;;;;15.04;73.96;99135.84;104799;1267;61195;-22
2023/07/08 00:33:55;;;;;;;3.20;1.40;;;;;;;14.87;74.77;99142.81;104757;1270;73868;-22
2023/07/08 00:36:26;;;;;;;2.70;0.90;;;;;;;14.73;75.38;99142.85;104562;1264;74476;-22
2023/07/08 00:38:54;;;;;;;3.10;1.20;;;;;;;15.18;74.63;99149.52;104735;1271;72726;-22
2023/07/08 00:41:41;;;;;;;2.80;1.00;;;;;;;15.59;73.05;99147.78;104673;1266;61221;-23
2023/07/08 00:44:12;;;;;;;2.00;1.20;;;;;;;15.56;72.48;99152.36;104687;1264;61164;-23
2023/07/08 00:47:03;;;;;;;3.40;1.50;;;;;;;15.37;72.58;99152.05;104965;1269;73178;-22
2023/07/08 00:49:31;;;;;;;3.70;1.50;;;;;;;15.07;73.76;99154.24;105256;1263;73179;-22
2023/07/08 00:52:40;;;;;;;3.30;1.60;;;;;;;14.88;74.42;99154.73;105363;1262;71700;-22
2023/07/08 00:55:08;;;;;;;5.20;1.50;;;;;;;14.61;75.41;99160.45;105183;1263;61131;-22
2023/07/08 00:57:39;;;;;;;2.90;1.00;;;;;;;14.51;75.96;99164.79;105077;1263;61330;-22
2023/07/08 01:00:15;;;;;;;1.90;1.00;;;;;;;15.02;74.94;99166.33;105077;1269;73128;-22
2023/07/08 01:02:48;;;;;;;1.90;1.10;;;;;;;15.50;72.82;99171.02;104888;1263;72229;-23
2023/07/08 01:05:21;;;;;;;4.60;1.70;;;;;;;15.50;72.15;99171.08;104866;1264;72709;-22
2023/07/08 01:07:53;;;;;;;2.40;1.20;;;;;;;15.28;72.82;99168.50;104792;1270;61206;-23
2023/07/08 01:10:25;;;;;;;1.90;1.20;;;;;;;15.01;73.22;99171.08;104630;1263;61233;-22
2023/07/08 01:12:56;;;;;;;2.20;1.40;;;;;;;14.71;74.15;99166.14;104781;1270;73088;-22
2023/07/08 01:15:27;;;;;;;2.50;1.20;;;;;;;14.47;74.83;99165.77;104828;1274;74477;-22
2023/07/08 01:17:54;;;;;;;2.50;1.20;;;;;;;14.35;75.52;99160.23;104906;1267;72748;-22
2023/07/08 01:20:22;;;;;;;1.40;1.00;;;;;;;14.76;74.51;99157.11;104744;1264;61049;-22
2023/07/08 01:22:50;;;;;;;3.60;1.10;;;;;;;15.12;72.65;99160.64;104906;1263;61211;-22
2023/07/08 01:25:18;;;;;;;2.60;1.00;;;;;;;15.11;72.59;99162.27;104988;1263;73069;-22
2023/07/08 01:27:49;;;;;;;4.00;1.20;;;;;;;14.89;73.13;99167.34;105225;1263;72841;-23
2023/07/08 01:30:16;;;;;;;6.00;1.60;;;;;;;14.66;73.65;99163.30;105236;1260;72802;-22
2023/07/08 01:32:49;;;;;;;2.00;1.40;;;;;;;14.47;74.31;99165.63;105430;1257;61193;-22
2023/07/08 01:35:17;;;;;;;6.50;1.70;;;;;;;14.25;74.97;99163.52;105218;1253;61084;-22
2023/07/08 01:37:49;;;;;;;5.20;0.90;;;;;;;14.07;75.60;99163.94;105679;1258;72084;-22
2023/07/08 01:40:28;;;;;;;1.40;1.00;;;;;;;14.57;74.85;99161.52;105498;1262;72669;-23
2023/07/08 01:42:56;;;;;;;4.10;1.40;;;;;;;15.08;72.10;99163.11;105569;1254;72692;-22
2023/07/08 01:45:26;;;;;;;2.40;1.10;;;;;;;15.08;71.35;99162.02;105480;1260;61156;-22
2023/07/08 01:48:05;;;;;;;2.30;1.40;;;;;;;14.88;71.98;99161.23;105644;1254;61142;-22
2023/07/08 01:50:36;;;;;;;4.20;1.50;;;;;;;14.61;72.70;99163.27;105683;1254;73118;-22
2023/07/08 01:53:18;;;;;;;2.00;1.20;;;;;;;14.39;73.15;99170.94;105620;1254;73339;-23
2023/07/08 01:55:46;;;;;;;2.80;1.70;;;;;;;14.22;73.79;99176.05;105811;1254;72739;-22
2023/07/08 01:58:13;;;;;;;1.50;1.10;;;;;;;14.10;74.60;99178.67;105687;1253;61176;-22
2023/07/08 02:00:43;;;;;;;1.00;0.80;;;;;;;14.52;73.96;99172.33;105653;1256;61173;-22
2023/07/08 02:03:11;;;;;;;3.60;1.30;;;;;;;14.97;72.33;99171.48;105705;1257;73058;-23
2023/07/08 02:05:39;;;;;;;3.40;1.40;;;;;;;14.96;71.67;99172.34;105650;1254;74454;-22
2023/07/08 02:08:08;;;;;;;7.10;1.30;;;;;;;14.71;72.00;99167.22;105723;1254;71434;-22
2023/07/08 02:10:38;;;;;;;8.20;1.90;;;;;;;14.44;72.99;99163.63;105786;1253;61170;-22
2023/07/08 02:13:05;;;;;;;5.20;1.70;;;;;;;14.18;73.44;99163.84;105715;1259;61681;-22
2023/07/08 02:15:33;;;;;;;2.70;1.50;;;;;;;13.94;74.00;99168.15;105572;1256;71826;-22
2023/07/08 02:18:01;;;;;;;3.90;1.00;;;;;;;13.84;74.70;99172.90;105410;1254;74034;-22
2023/07/08 02:20:29;;;;;;;1.20;0.90;;;;;;;14.26;74.20;99176.13;105597;1254;73145;-23
2023/07/08 02:22:57;;;;;;;5.10;1.30;;;;;;;14.68;72.32;99177.61;105465;1254;61157;-23
2023/07/08 02:25:25;;;;;;;2.20;1.60;;;;;;;14.67;71.93;99178.91;105531;1253;61752;-22
2023/07/08 02:27:56;;;;;;;1.80;1.40;;;;;;;14.48;72.58;99179.64;105656;1254;72132;-23
2023/07/08 02:30:24;;;;;;;7.50;1.50;;;;;;;14.20;73.61;99177.73;105654;1254;73416;-23
2023/07/08 02:32:59;;;;;;;3.00;1.50;;;;;;;13.98;74.61;99183.98;105661;1259;72714;-23
2023/07/08 02:35:28;;;;;;;2.70;1.50;;;;;;;13.75;75.73;99187.01;105660;1259;61215;-23
2023/07/08 02:37:57;;;;;;;2.00;1.00;;;;;;;13.61;76.81;99187.60;105655;1254;61238;-23
2023/07/08 02:40:25;;;;;;;2.60;1.40;;;;;;;14.05;75.81;99189.62;105705;1261;73091;-22
2023/07/08 02:42:54;;;;;;;2.20;1.20;;;;;;;14.43;74.17;99181.71;105709;1254;74358;-22
2023/07/08 02:45:22;;;;;;;2.20;1.50;;;;;;;14.43;73.57;99181.54;105714;1254;72874;-23
2023/07/08 02:47:49;;;;;;;2.90;1.80;;;;;;;14.31;74.07;99182.48;105715;1254;61320;-23
2023/07/08 02:50:18;;;;;;;2.00;1.50;;;;;;;14.12;74.49;99184.11;105562;1254;61120;-23
2023/07/08 02:52:46;;;;;;;5.00;1.60;;;;;;;13.92;75.34;99183.86;105727;1254;72136;-22
2023/07/08 02:55:14;;;;;;;3.60;1.60;;;;;;;13.78;76.15;99183.97;105665;1259;73743;-23
2023/07/08 02:57:42;;;;;;;2.10;0.90;;;;;;;13.69;76.57;99182.29;105582;1257;72730;-23
2023/07/08 03:00:11;;;;;;;1.80;1.20;;;;;;;14.17;75.31;99180.34;105614;1257;61439;-22
2023/07/08 03:02:39;;;;;;;2.70;1.40;;;;;;;14.56;73.88;99182.36;105729;1254;61158;-22
2023/07/08 03:05:07;;;;;;;5.40;1.70;;;;;;;14.57;73.38;99185.91;105726;1254;73814;-23
2023/07/08 03:07:35;;;;;;;11.60;1.60;;;;;;;14.44;73.85;99183.73;105747;1259;74550;-22
2023/07/08 03:10:03;;;;;;;3.30;1.60;;;;;;;14.22;74.30;99185.42;105660;1257;73297;-22
2023/07/08 03:12:31;;;;;;;4.70;1.80;;;;;;;14.07;74.89;99186.65;105716;1259;61109;-22
2023/07/08 03:15:00;;;;;;;4.10;1.50;;;;;;;13.91;75.44;99189.15;105576;1253;61148;-22
2023/07/08 03:17:28;;;;;;;3.90;1.30;;;;;;;13.85;75.97;99186.42;105607;1259;72040;-22
2023/07/08 03:19:56;;;;;;;2.60;1.10;;;;;;;14.37;75.04;99184.67;105596;1254;75021;-22
2023/07/08 03:22:24;;;;;;;3.80;1.70;;;;;;;14.85;73.30;99183.65;105567;1257;73344;-23
2023/07/08 03:24:52;;;;;;;3.20;1.60;;;;;;;14.90;72.70;99188.07;105357;1254;61167;-22
2023/07/08 03:27:21;;;;;;;5.40;1.30;;;;;;;14.71;72.51;99189.34;105624;1254;61125;-22
2023/07/08 03:29:50;;;;;;;2.50;1.20;;;;;;;14.55;73.32;99188.77;105799;1257;73002;-22
2023/07/08 03:32:17;;;;;;;3.70;1.40;;;;;;;14.43;74.17;99188.67;105623;1254;73435;-22
2023/07/08 03:34:45;;;;;;;3.90;1.60;;;;;;;14.24;74.56;99192.39;105708;1254;71062;-23
2023/07/08 03:37:13;;;;;;;4.50;1.40;;;;;;;14.14;75.08;99195.77;105502;1259;62202;-22
2023/07/08 03:39:41;;;;;;;5.80;1.30;;;;;;;14.64;74.35;99196.33;105786;1257;61256;-22
2023/07/08 03:42:09;;;;;;;2.10;1.30;;;;;;;15.18;72.40;99194.13;105721;1254;73863;-22
2023/07/08 03:44:37;;;;;;;3.60;1.40;;;;;;;15.23;71.43;99198.34;105463;1254;74454;-22
2023/07/08 03:47:04;;;;;;;3.60;1.80;;;;;;;15.15;71.37;99198.66;105438;1254;71476;-22
2023/07/08 03:49:32;;;;;;;2.80;1.90;;;;;;;14.97;72.27;99199.83;105517;1257;61048;-23
2023/07/08 03:52:00;;;;;;;2.70;1.50;;;;;;;14.87;72.49;99197.47;105575;1254;61094;-22
2023/07/08 03:54:28;;;;;;;2.80;1.70;;;;;;;14.78;73.00;99192.05;105414;1259;72596;-22
2023/07/08 03:56:57;;;;;;;4.00;1.50;;;;;;;14.67;73.29;99197.77;105580;1257;73509;-22
2023/07/08 03:59:26;;;;;;;2.50;1.10;;;;;;;14.79;73.83;99195.81;105772;1257;71472;-22
2023/07/08 04:01:55;;;;;;;4.30;1.50;;;;;;;15.43;72.10;99196.02;105814;1254;61160;-22
2023/07/08 04:04:24;;;;;;;3.30;1.50;;;;;;;15.68;70.07;99191.84;105634;1259;61173;-22
2023/07/08 04:06:53;;;;;;;2.20;1.40;;;;;;;15.69;70.09;99189.97;105538;1254;74009;-22
2023/07/08 04:09:21;;;;;;;1.90;1.40;;;;;;;15.64;70.37;99195.35;105377;1259;74569;-23
2023/07/08 04:11:49;;;;;;;4.70;1.40;;;;;;;15.56;70.73;99191.88;105663;1254;72698;-22
2023/07/08 04:14:16;;;;;;;3.30;1.60;;;;;;;15.49;71.02;99191.94;105696;1257;61119;-22
2023/07/08 04:16:49;;;;;;;5.60;1.70;;;;;;;15.44;71.63;99192.10;105730;1253;61095;-23
2023/07/08 04:19:17;;;;;;;3.10;1.90;;;;;;;15.34;71.29;99190.06;105665;1261;72625;-22
2023/07/08 04:21:46;;;;;;;5.40;1.20;;;;;;;15.30;72.43;99181.94;105807;1257;74437;-22
2023/07/08 04:24:14;;;;;;;4.40;1.30;;;;;;;15.83;70.62;99181.73;105618;1255;72733;-22
2023/07/08 04:26:46;;;;;;;2.20;1.30;;;;;;;16.32;68.28;99184.16;105554;1254;61202;-22
2023/07/08 04:29:18;;;;;;;2.30;1.20;;;;;;;16.49;67.75;99181.71;105612;1254;61109;-22
2023/07/08 04:31:46;;;;;;;3.80;1.40;;;;;;;16.35;67.24;99189.79;105709;1258;73964;-22
2023/07/08 04:34:15;;;;;;;3.80;1.50;;;;;;;16.25;67.61;99184.02;105793;1257;74450;-22
2023/07/08 04:36:43;;;;;;;3.70;1.40;;;;;;;16.14;68.52;99186.35;105679;1260;72696;-22
2023/07/08 04:39:11;;;;;;;2.10;1.60;;;;;;;16.10;68.64;99183.55;105672;1254;61151;-22
2023/07/08 04:41:40;;;;;;;8.30;1.70;;;;;;;16.14;68.71;99183.69;105592;1254;61084;-23
2023/07/08 04:44:12;;;;;;;3.20;1.40;;;;;;;16.11;68.08;99190.12;105716;1254;73874;-22
2023/07/08 04:46:47;;;;;;;7.30;2.20;;;;;;;16.07;68.27;99193.19;105594;1262;74541;-22
2023/07/08 04:49:15;;;;;;;2.60;1.70;;;;;;;16.13;68.35;99192.95;105650;1254;71555;-22
2023/07/08 04:51:43;;;;;;;2.80;1.30;;;;;;;16.23;68.22;99192.23;105550;1259;61183;-22
2023/07/08 04:54:11;;;;;;;3.20;1.10;;;;;;;16.64;67.53;99191.14;105666;1257;61116;-22
2023/07/08 04:56:40;;;;;;;3.70;1.30;;;;;;;17.27;65.07;99187.80;105750;1254;73867;-22
2023/07/08 04:59:09;;;;;;;2.20;1.40;;;;;;;17.49;64.07;99188.91;105824;1257;73440;-22
2023/07/08 05:01:37;;;;;;;1.40;1.20;;;;;;;17.48;63.81;99190.65;105568;1254;72926;-22
2023/07/08 05:04:05;;;;;;;4.20;1.60;;;;;;;17.39;62.96;99190.30;105818;1258;61174;-22
2023/07/08 05:06:34;;;;;;;3.40;1.50;;;;;;;17.40;63.44;99192.14;105765;1254;61128;-23
2023/07/08 05:09:02;;;;;;;2.60;1.50;;;;;;;17.52;64.04;99190.85;105751;1258;74075;-22
2023/07/08 05:11:30;;;;;;;2.70;1.70;;;;;;;17.51;63.44;99189.54;105689;1259;74443;-22
2023/07/08 05:13:58;;;;;;;7.30;1.60;;;;;;;17.53;63.33;99189.01;105647;1257;72790;-22
2023/07/08 05:16:26;;;;;;;3.60;1.70;;;;;;;17.41;63.10;99188.92;105748;1257;61116;-22
2023/07/08 05:18:54;;;;;;;4.00;1.50;;;;;;;17.55;62.66;99188.09;105678;1259;61106;-22
2023/07/08 05:21:21;;;;;;;2.20;1.60;;;;;;;17.61;62.24;99188.70;105798;1254;73862;-22
2023/07/08 05:23:49;;;;;;;6.30;1.50;;;;;;;17.63;62.82;99192.30;105654;1259;72410;-22
2023/07/08 05:26:17;;;;;;;2.70;1.50;;;;;;;17.74;62.34;99193.59;105663;1254;72727;-22
2023/07/08 05:28:45;;;;;;;3.30;1.70;;;;;;;17.91;63.10;99193.70;105731;1254;61160;-22
2023/07/08 05:31:13;;;;;;;5.10;1.60;;;;;;;18.01;62.76;99191.45;105728;1259;61188;-22
2023/07/08 05:33:41;;;;;;;3.00;1.80;;;;;;;18.05;61.46;99194.96;105696;1259;73855;-22
2023/07/08 05:36:09;;;;;;;2.80;1.40;;;;;;;17.93;61.25;99194.52;105742;1259;72704;-22
2023/07/08 05:38:37;;;;;;;2.00;1.60;;;;;;;18.15;61.32;99193.67;105841;1259;72682;-22
2023/07/08 05:41:04;;;;;;;5.00;1.50;;;;;;;18.21;60.91;99194.48;105739;1253;61062;-23
2023/07/08 05:43:32;;;;;;;4.00;1.70;;;;;;;18.35;61.34;99195.56;105714;1254;61046;-22
2023/07/08 05:46:00;;;;;;;3.70;1.60;;;;;;;18.30;59.32;99191.04;105657;1254;74007;-22
2023/07/08 05:48:39;;;;;;;2.70;1.20;;;;;;;18.52;59.21;99189.09;105762;1260;74435;-22
2023/07/08 05:58:49;;;;;;;4.20;1.70;;;;;;;18.63;59.41;99182.44;102714;1293;599388;-21
2023/07/08 06:01:17;;;;;;;3.70;1.60;;;;;;;18.87;60.27;99186.00;104868;1264;61110;-21
2023/07/08 06:03:45;;;;;;;4.50;1.80;;;;;;;18.97;59.09;99184.60;104880;1270;61180;-21
2023/07/08 06:06:13;;;;;;;2.40;1.60;;;;;;;19.10;59.95;99185.89;105539;1258;72259;-21
2023/07/08 06:08:41;;;;;;;3.10;1.50;;;;;;;19.18;58.12;99185.13;105440;1263;73303;-20
2023/07/08 06:11:09;;;;;;;3.90;1.60;;;;;;;19.06;57.80;99187.40;105451;1260;71743;-21
2023/07/08 06:13:36;;;;;;;3.60;1.50;;;;;;;19.05;57.05;99182.23;103641;1260;2704176;-21
2023/07/08 06:16:05;;;;;;;2.80;1.60;;;;;;;19.09;57.94;99183.19;105662;1260;61257;-21
2023/07/08 06:26:12;;;;;;;4.90;1.50;;;;;;;19.35;56.62;99181.69;102598;1293;600323;-21
2023/07/08 06:28:40;;;;;;;7.00;1.60;;;;;;;19.43;56.53;99177.39;105238;1263;61204;-21
2023/07/08 06:31:08;;;;;;;3.60;1.70;;;;;;;19.50;56.25;99173.72;105172;1267;61165;-21
2023/07/08 06:40:41;;;;;;;2.30;1.30;;;;;;;19.55;56.08;99174.08;102698;1289;600236;-22
2023/07/08 06:43:09;;;;;;;4.90;1.30;;;;;;;19.96;55.05;99172.80;104648;1270;61216;-22
2023/07/08 06:45:59;;;;;;;4.00;1.70;;;;;;;20.11;53.67;99175.80;104835;1267;61101;-21
2023/07/08 06:48:27;;;;;;;5.30;1.40;;;;;;;20.06;53.19;99179.88;104878;1270;72318;-21
2023/07/08 06:50:54;;;;;;;2.50;1.30;;;;;;;20.07;52.25;99180.17;104783;1267;74991;-22
2023/07/08 06:53:22;;;;;;;2.60;1.30;;;;;;;20.18;52.73;99178.05;102805;1271;2693081;-22
2023/07/08 06:55:50;;;;;;;2.60;1.30;;;;;;;20.13;52.71;99177.15;104750;1269;61171;-22
2023/07/08 06:58:18;;;;;;;3.00;1.70;;;;;;;20.34;53.43;99173.54;105065;1270;61186;-22
2023/07/08 07:00:46;;;;;;;5.50;1.40;;;;;;;20.51;54.66;99175.09;104865;1269;72238;-22
2023/07/08 07:03:14;;;;;;;3.40;1.10;;;;;;;20.73;53.02;99174.38;104844;1269;73296;-22
2023/07/08 07:05:43;;;;;;;2.70;1.50;;;;;;;20.41;52.93;99177.25;105088;1267;72760;-23
2023/07/08 07:08:11;;;;;;;5.60;1.50;;;;;;;20.63;53.38;99181.19;104920;1260;61112;-23
2023/07/08 07:10:39;;;;;;;5.80;1.50;;;;;;;20.56;50.64;99178.30;105178;1266;61093;-22
2023/07/08 07:13:06;;;;;;;2.60;1.30;;;;;;;20.78;53.29;99176.96;105196;1261;73158;-23
2023/07/08 07:15:34;;;;;;;4.40;1.60;;;;;;;21.13;53.15;99179.36;105163;1260;74533;-22
2023/07/08 07:18:02;;;;;;;4.90;1.80;;;;;;;21.29;53.52;99176.65;105433;1260;72702;-22
2023/07/08 07:20:30;;;;;;;3.20;1.50;;;;;;;21.39;51.70;99180.70;105518;1256;61132;-23
2023/07/08 07:22:58;;;;;;;5.60;1.60;;;;;;;21.06;50.70;99179.30;105424;1262;61109;-22
2023/07/08 07:25:26;;;;;;;7.50;1.40;;;;;;;21.27;51.22;99177.48;105508;1262;73094;-22
2023/07/08 07:27:53;;;;;;;3.10;1.40;;;;;;;21.36;50.78;99182.48;105492;1264;73745;-23
2023/07/08 07:30:21;;;;;;;4.60;1.40;;;;;;;21.57;51.25;99177.98;105121;1263;72679;-23
2023/07/08 07:32:49;;;;;;;2.20;1.40;;;;;;;21.75;49.83;99173.55;105248;1263;61167;-23
2023/07/08 07:35:17;;;;;;;3.60;1.80;;;;;;;21.69;49.73;99175.78;105347;1262;61142;-22
2023/07/08 07:37:45;;;;;;;3.20;1.50;;;;;;;21.96;49.82;99175.18;105454;1258;73113;-22
2023/07/08 07:40:15;;;;;;;5.10;1.60;;;;;;;21.55;48.24;99174.17;105179;1257;74457;-22
2023/07/08 07:42:44;;;;;;;5.50;1.50;;;;;;;21.60;48.15;99178.70;105624;1254;71462;-23
2023/07/08 07:45:12;;;;;;;3.50;1.50;;;;;;;21.81;48.00;99175.38;105317;1264;61200;-23
2023/07/08 07:47:40;;;;;;;2.60;1.10;;;;;;;21.99;48.71;99174.70;105607;1257;61269;-20
2023/07/08 07:50:09;;;;;;;4.80;1.30;;;;;;;21.65;46.06;99169.27;105591;1259;71886;-20
2023/07/08 07:52:37;;;;;;;2.20;1.50;;;;;;;22.03;48.93;99171.48;105664;1260;74483;-20
2023/07/08 07:55:07;;;;;;;4.10;1.20;;;;;;;22.13;48.26;99167.50;105590;1259;71473;-20
2023/07/08 07:57:35;;;;;;;3.80;1.20;;;;;;;22.24;47.15;99171.79;105538;1261;61162;-20
2023/07/08 08:00:04;;;;;;;2.90;1.50;;;;;;;22.26;46.08;99170.48;105420;1261;61181;-20
2023/07/08 08:02:40;;;;;;;2.90;1.50;;;;;;;22.25;45.78;99169.66;105411;1260;73054;-20
2023/07/08 08:05:08;;;;;;;3.80;1.30;;;;;;;21.80;46.11;99168.92;105457;1254;73253;-21
2023/07/08 08:07:36;;;;;;;3.20;1.50;;;;;;;22.07;46.94;99173.88;105524;1260;70828;-21
2023/07/08 08:10:05;;;;;;;2.80;1.10;;;;;;;22.52;47.66;99172.75;105263;1256;61121;-21
2023/07/08 08:18:56;;;;;;;2.60;1.60;;;;;;;22.23;44.68;99164.23;102690;1293;600105;-21
2023/07/08 08:21:24;;;;;;;4.50;1.30;;;;;;;22.27;44.37;99163.44;104805;1268;61244;-21
2023/07/08 08:23:52;;;;;;;2.30;1.20;;;;;;;22.08;44.05;99164.29;104835;1264;61256;-21
2023/07/08 08:26:20;;;;;;;3.60;1.80;;;;;;;21.63;43.65;99164.45;104851;1264;72250;-21
2023/07/08 08:28:48;;;;;;;3.70;1.20;;;;;;;22.01;42.76;99162.10;104820;1270;74343;-21
2023/07/08 08:31:15;;;;;;;1.70;1.20;;;;;;;21.65;43.38;99162.77;104832;1266;72482;-21
2023/07/08 08:33:43;;;;;;;2.60;1.30;;;;;;;21.64;42.53;99164.79;103013;1265;2561111;-21
2023/07/08 08:36:11;;;;;;;4.10;1.60;;;;;;;21.44;42.96;99158.95;105130;1261;61073;-21
2023/07/08 08:38:39;;;;;;;3.70;1.40;;;;;;;21.62;44.41;99161.47;105117;1263;72301;-21
2023/07/08 08:41:15;;;;;;;3.30;1.40;;;;;;;21.55;44.34;99160.41;104862;1263;74487;-21
2023/07/08 08:43:42;;;;;;;6.00;1.40;;;;;;;21.25;44.89;99159.05;104834;1266;72734;-21
2023/07/08 08:46:23;;;;;;;2.70;1.30;;;;;;;21.28;45.47;99155.85;105134;1263;61216;-21
2023/07/08 08:49:16;;;;;;;1.40;1.00;;;;;;;21.83;46.30;99160.82;104900;1270;61182;-23
2023/07/08 08:51:44;;;;;;;3.20;1.30;;;;;;;22.04;45.24;99160.45;104897;1270;73120;-22
2023/07/08 08:54:12;;;;;;;3.90;1.50;;;;;;;22.09;44.80;99161.60;105072;1268;74459;-22
2023/07/08 08:56:47;;;;;;;2.50;1.40;;;;;;;22.05;45.60;99160.82;104844;1263;71445;-22
2023/07/08 08:59:40;;;;;;;2.10;1.30;;;;;;;21.97;44.22;99166.98;104680;1266;61154;-22
2023/07/08 09:02:27;;;;;;;1.20;0.90;;;;;;;22.04;44.39;99168.35;104878;1268;61093;-23
2023/07/08 09:04:58;;;;;;;3.10;1.10;;;;;;;21.75;44.34;99169.05;105080;1268;73073;-22
2023/07/08 09:07:26;;;;;;;2.40;1.50;;;;;;;21.87;44.24;99164.48;104871;1263;74513;-22
2023/07/08 09:10:08;;;;;;;3.50;1.30;;;;;;;21.81;43.54;99166.50;105022;1265;71798;-22
2023/07/08 09:12:36;;;;;;;5.70;1.30;;;;;;;22.10;42.97;99167.97;104839;1270;61149;-22
2023/07/08 09:15:11;;;;;;;4.30;1.30;;;;;;;21.84;43.62;99166.69;104839;1263;61209;-23
2023/07/08 09:17:39;;;;;;;2.40;1.00;;;;;;;21.25;44.31;99168.02;104600;1271;73651;-22
2023/07/08 09:20:25;;;;;;;3.60;1.40;;;;;;;21.79;43.79;99171.29;104725;1264;74484;-22
2023/07/08 09:23:01;;;;;;;3.60;1.40;;;;;;;22.03;43.47;99165.13;104744;1271;72855;-23
2023/07/08 09:25:42;;;;;;;2.60;1.60;;;;;;;21.89;44.70;99172.84;105215;1259;61121;-22
2023/07/08 09:28:13;;;;;;;2.20;1.50;;;;;;;21.84;45.01;99169.11;105445;1256;61115;-22
2023/07/08 09:30:47;;;;;;;4.50;1.60;;;;;;;21.92;44.38;99176.73;105146;1256;73127;-22
2023/07/08 09:33:15;;;;;;;9.00;2.20;;;;;;;21.88;43.04;99177.95;105100;1256;74505;-22
2023/07/08 09:43:25;;;;;;;1.50;1.00;;;;;;;21.46;46.25;99178.11;102611;1295;600026;-21
2023/07/08 09:45:57;;;;;;;2.00;1.20;;;;;;;21.48;45.84;99181.52;104654;1272;61228;-21
2023/07/08 09:48:28;;;;;;;2.70;1.70;;;;;;;21.70;45.45;99179.17;104704;1275;61178;-21
2023/07/08 09:50:57;;;;;;;2.50;1.10;;;;;;;21.12;45.34;99176.90;104789;1266;72309;-21
2023/07/08 09:53:26;;;;;;;4.10;1.40;;;;;;;21.36;45.55;99181.65;104765;1271;73275;-21
2023/07/08 09:55:58;;;;;;;3.00;1.50;;;;;;;21.77;45.75;99184.32;102866;1268;2676269;-22
2023/07/08 09:58:31;;;;;;;3.90;1.30;;;;;;;21.28;44.52;99177.65;104856;1271;61173;-21
2023/07/08 10:01:05;;;;;;;3.60;1.50;;;;;;;21.29;44.80;99179.86;104672;1264;61170;-21
2023/07/08 10:03:34;;;;;;;3.00;1.30;;;;;;;21.32;45.21;99176.86;104734;1270;70547;-21
2023/07/08 10:06:14;;;;;;;3.00;1.30;;;;;;;20.97;45.57;99179.15;104874;1273;74425;-21
2023/07/08 10:08:45;;;;;;;3.70;1.40;;;;;;;21.14;46.25;99182.23;104726;1272;72745;-22
2023/07/08 10:11:18;;;;;;;4.00;1.20;;;;;;;20.98;46.61;99178.73;104726;1270;61241;-21
2023/07/08 10:13:48;;;;;;;1.80;1.20;;;;;;;21.05;47.19;99183.36;105343;1255;61121;-21
2023/07/08 10:16:36;;;;;;;2.90;1.40;;;;;;;21.38;48.14;99177.84;105353;1262;73056;-21
2023/07/08 10:19:12;;;;;;;3.70;1.80;;;;;;;21.76;47.98;99180.77;105601;1255;73481;-22
2023/07/08 10:22:08;;;;;;;3.60;1.70;;;;;;;21.71;47.51;99177.99;105490;1257;72704;-22
2023/07/08 10:24:45;;;;;;;3.50;1.50;;;;;;;21.92;47.01;99175.02;105558;1258;61492;-21
2023/07/08 10:27:22;;;;;;;4.10;1.60;;;;;;;21.64;46.31;99169.84;105538;1255;61167;-23
2023/07/08 10:30:22;;;;;;;3.90;1.60;;;;;;;21.73;46.72;99169.51;105688;1254;75033;-21
2023/07/08 10:33:15;;;;;;;2.30;1.50;;;;;;;21.99;46.24;99171.11;105712;1259;74451;-21
2023/07/08 10:35:58;;;;;;;5.60;1.60;;;;;;;21.87;44.63;99173.58;105684;1260;72691;-21
2023/07/08 10:38:57;;;;;;;3.00;1.50;;;;;;;21.82;45.31;99174.08;105833;1254;61151;-21
2023/07/08 10:41:34;;;;;;;1.80;1.20;;;;;;;21.62;46.60;99174.71;105418;1254;61093;-22
2023/07/08 10:44:32;;;;;;;3.80;1.40;;;;;;;21.79;45.98;99173.58;105460;1258;71490;-22
2023/07/08 10:47:10;;;;;;;2.70;1.70;;;;;;;21.83;45.89;99170.46;105372;1254;74454;-22
2023/07/08 10:49:38;;;;;;;4.00;1.50;;;;;;;21.87;46.52;99174.71;105288;1260;71466;-21
2023/07/08 10:52:25;;;;;;;6.10;1.50;;;;;;;21.84;46.24;99171.40;105655;1257;61215;-21
2023/07/08 10:55:23;;;;;;;2.80;1.60;;;;;;;22.08;46.21;99170.20;105460;1254;61135;-21
2023/07/08 10:57:56;;;;;;;3.20;1.60;;;;;;;22.08;46.25;99171.20;105308;1260;73151;-21
2023/07/08 11:00:32;;;;;;;2.00;1.30;;;;;;;22.17;47.15;99172.95;105551;1254;74475;-21
2023/07/08 11:03:32;;;;;;;1.50;1.30;;;;;;;21.86;45.50;99163.93;105479;1255;72788;-21
2023/07/08 11:06:34;;;;;;;4.10;1.10;;;;;;;21.51;46.02;99158.83;105468;1254;61013;-22
2023/07/08 11:09:03;;;;;;;2.40;1.30;;;;;;;21.44;46.54;99157.31;105462;1254;61046;-21
2023/07/08 11:11:47;;;;;;;2.70;1.50;;;;;;;21.57;46.09;99154.84;105488;1260;73062;-21
2023/07/08 11:14:48;;;;;;;5.30;1.10;;;;;;;21.86;45.99;99154.52;105238;1260;74470;-21
2023/07/08 11:17:24;;;;;;;4.20;1.10;;;;;;;21.86;46.78;99149.67;105632;1253;71523;-22
2023/07/08 11:19:58;;;;;;;2.50;1.40;;;;;;;21.79;46.89;99147.32;105698;1252;61214;-21
2023/07/08 11:22:27;;;;;;;2.90;1.50;;;;;;;21.85;46.08;99146.16;105730;1260;61160;-22
2023/07/08 11:24:55;;;;;;;2.80;1.30;;;;;;;21.69;46.09;99143.66;105612;1261;73110;-21
2023/07/08 11:27:33;;;;;;;3.90;1.30;;;;;;;21.65;45.77;99139.61;105494;1254;74424;-21
2023/07/08 11:30:12;;;;;;;2.10;1.40;;;;;;;21.54;46.50;99141.09;105690;1260;72729;-21
2023/07/08 11:32:41;;;;;;;4.50;1.30;;;;;;;21.43;45.94;99142.27;105679;1254;62123;-21
2023/07/08 11:35:57;;;;;;;1.80;1.30;;;;;;;21.30;45.87;99143.94;105573;1260;61052;-21
2023/07/08 11:38:26;;;;;;;1.80;1.10;;;;;;;21.79;46.92;99145.20;105634;1254;73109;-21
2023/07/08 11:41:14;;;;;;;2.30;1.20;;;;;;;21.98;46.66;99148.06;105656;1259;74464;-22
2023/07/08 11:43:46;;;;;;;3.30;1.60;;;;;;;22.04;47.13;99145.11;105619;1254;71455;-21
2023/07/08 11:46:25;;;;;;;4.20;1.20;;;;;;;21.91;47.10;99144.92;105613;1253;61134;-21
2023/07/08 11:48:53;;;;;;;2.20;1.20;;;;;;;22.07;47.31;99143.23;105664;1260;61177;-22
2023/07/08 11:51:32;;;;;;;2.40;1.10;;;;;;;22.40;48.11;99142.70;105680;1254;71841;-21
2023/07/08 11:54:03;;;;;;;1.50;1.10;;;;;;;22.14;45.53;99142.40;105710;1260;74476;-21
2023/07/08 11:56:48;;;;;;;2.20;1.40;;;;;;;21.91;45.58;99142.23;105699;1254;71408;-23
2023/07/08 11:59:18;;;;;;;2.30;1.60;;;;;;;21.86;45.69;99142.38;105707;1254;61227;-21
2023/07/08 12:01:47;;;;;;;4.20;1.80;;;;;;;21.85;46.49;99141.23;105681;1260;61221;-23
2023/07/08 12:04:28;;;;;;;5.60;2.70;;;;;;;22.20;46.60;99137.41;105712;1254;73117;-23
2023/07/08 12:07:20;;;;;;;2.20;1.40;;;;;;;22.35;47.46;99135.95;105714;1254;74428;-24
2023/07/08 12:10:02;;;;;;;3.10;1.70;;;;;;;22.25;46.39;99132.94;105640;1254;71445;-23
2023/07/08 12:12:31;;;;;;;2.30;1.50;;;;;;;21.88;46.18;99138.92;105612;1254;61490;-23
2023/07/08 12:15:23;;;;;;;2.60;1.20;;;;;;;21.96;46.75;99135.70;105556;1254;61154;-22
2023/07/08 12:17:52;;;;;;;4.10;2.10;;;;;;;21.95;46.72;99133.94;105498;1253;72094;-22
2023/07/08 12:20:27;;;;;;;4.00;1.40;;;;;;;22.47;47.32;99132.80;105681;1260;74469;-22
2023/07/08 12:22:54;;;;;;;3.00;1.40;;;;;;;22.62;45.02;99129.46;105545;1261;72627;-22